Wednesday, April 01, 2015
04:37 UTC
  |  Log In   |  Register Free
Airport Search:

John F Kennedy Memorial Airport
(KASX)

John F Kennedy Memorial Airport Diagram
No Airport Diagram Available

FAA data valid effective March 05, 2015 - April 30, 2015 (unless otherwise noted).

 
 
 
 
 
 
 
 
 
 
 
 
 
 

Current Aviation Weather for John F Kennedy Memorial Airport (KASX)

The most recent METAR observation for KASX was updated at: 0407
METAR Summary (Translated METAR)
KASX
010401Z AUTO 03008KT 10SM SCT006 M01/M01 A2998 RMK AO2 T10061011
KIWD
010355Z AUTO 09006KT 10SM CLR 00/M01 A2994 RMK AO1
(32.6 nm SE from KASX)
KHYR
010353Z AUTO 06003KT 10SM CLR 04/M01 A2994 RMK AO2 SLP149 T00441011
(38.2 nm SW from KASX)
TAF Summary (Translated TAF)
KIWD
(32.6 nm SE from KASX)
311739Z 3118/0118 29013KT P6SM BKN015 OVC025 TEMPO 3118/3120 BKN025 FM312000 29013KT P6SM BKN035 FM312200 34008KT P6SM BKN040 FM010200 07003KT P6SM SCT250 FM011500 15012G20KT P6SM BKN100 AMD LTD TO CLD VIS AND WIND
KHYR
(38.2 nm SW from KASX)
311724Z 3118/0118 32010KT P6SM SKC FM010000 VRB03KT P6SM SCT150 FM010700 12010KT P6SM BKN100 FM011400 16012G20KT P6SM BKN150
  Airport Weather Conditions for KASX

 Current Weather at ASX
31° F
Fair
Northeast winds at 9.2 mph
ASX NOAA Radar

Pressure: 29.98 in
Humidity: 96%
Wind: Northeast at 9.2 MPH (8 KT)
Dew Point: 30.0°F
Visibility: 10.00 mi


Airport Weather Forecast for KASX

Translated METAR and TAF for KASX
Translated METAR for KASX (0436 UTC 01 April 2015)
found at http://aviationweather.gov/adds/metars/
 
METAR text: KASX 010410Z AUTO 03008KT 10SM BKN006 M01/M01 A2998 RMK AO2 T10061011
Conditions at: KASX (ASHLAND , WI, US) observed 0410 UTC 01 April 2015
Temperature: -0.6°C (31°F)
Dewpoint: -1.1°C (30°F) [RH = 96%]
Pressure (altimeter): 29.98 inches Hg (1015.3 mb)
Winds: from the NNE (30 degrees) at 9 MPH (8 knots; 4.2 m/s)
Visibility: 10 or more miles (16+ km)
Ceiling: 600 feet AGL
Clouds: broken clouds at 600 feet AGL
Weather: automated observation with no human augmentation;
there may or may not be significant weather present at this time
Translated TAF for KASX

There is no translated TAF available for this airport

Find All Airport Services Find A Hotel Find A Rental Car Find A Golf Course Find A Restaurant $100 Hamburger



FBO's on the Field
FBO Company Facility Photos Services Transportation Aviation Fuel Prices: Prices include tax
Catering Weather Repair Courtesy Rental Type 100LL JetA JetA+ MOGAS 8087
 
John F Kennedy Memorial Airport

This FBO has not yet been rated
FS:Phillips 66
Last Updated: Mar-17
Login to update fuel prices
SS:
Contact John F Kennedy Memorial AirportMore FBO Information
 
Add another FBO Facility Photos Catering Weather Repair Courtesy Rental Type 100LL JetA JetA+ MOGAS 8087
Services Transportation Aviation Fuel Prices: Prices include tax


model-print
model-print
model-print
model-print